createdAt,value
2018-12-16T00:00:21.956Z,-1.27
2018-12-16T00:01:30.618Z,-1.22
2018-12-16T00:02:39.268Z,-1.19
2018-12-16T00:03:47.939Z,-1.18
2018-12-16T00:04:56.605Z,-1.15
2018-12-16T00:06:05.287Z,-1.04
2018-12-16T00:07:13.940Z,-1.04
2018-12-16T00:08:22.861Z,-1.04
2018-12-16T00:09:31.527Z,-1
2018-12-16T00:10:40.459Z,-0.91
2018-12-16T00:11:49.122Z,-1.07
2018-12-16T00:12:59.418Z,-0.96
2018-12-16T00:14:08.091Z,-0.97
2018-12-16T00:15:16.762Z,-0.94
2018-12-16T00:16:25.465Z,-1.06
2018-12-16T00:17:34.134Z,-0.93
2018-12-16T00:18:42.793Z,-0.96
2018-12-16T00:19:51.460Z,-0.97
2018-12-16T00:21:00.132Z,-0.94
2018-12-16T00:22:08.845Z,-0.99
2018-12-16T00:23:17.524Z,-0.99
2018-12-16T00:24:26.181Z,-0.87
2018-12-16T00:25:34.844Z,-0.93
2018-12-16T00:26:43.506Z,-0.84
2018-12-16T00:27:52.169Z,-0.85
2018-12-16T00:29:00.828Z,-0.84
2018-12-16T00:30:09.497Z,-0.72
2018-12-16T00:31:18.162Z,-0.85
2018-12-16T00:32:26.852Z,-0.78
2018-12-16T00:33:35.510Z,-0.75
2018-12-16T00:34:44.185Z,-0.74
2018-12-16T00:35:52.854Z,-0.77
2018-12-16T00:37:01.775Z,-0.77
2018-12-16T00:38:10.439Z,-0.74
2018-12-16T00:39:19.350Z,-0.82
2018-12-16T00:40:28.267Z,-0.78
2018-12-16T00:41:36.931Z,-0.75
2018-12-16T00:42:45.602Z,-0.74
2018-12-16T00:43:54.276Z,-0.75
2018-12-16T00:45:02.940Z,-0.7
2018-12-16T00:46:11.599Z,-0.72
2018-12-16T00:47:20.271Z,-0.67
2018-12-16T00:48:29.190Z,-0.67
2018-12-16T00:49:37.856Z,-0.66
2018-12-16T00:50:46.520Z,-0.62
2018-12-16T00:51:55.438Z,-0.63
2018-12-16T00:53:04.113Z,-0.62
2018-12-16T00:54:12.777Z,-0.62
2018-12-16T00:55:21.442Z,-0.64
2018-12-16T00:56:30.101Z,-0.66
2018-12-16T00:57:38.770Z,-0.53
2018-12-16T00:58:47.439Z,-0.62
2018-12-16T00:59:56.106Z,-0.53
2018-12-16T01:01:04.775Z,-0.48
2018-12-16T01:02:13.441Z,-0.49
2018-12-16T01:03:22.109Z,-0.56
2018-12-16T01:04:30.765Z,-0.69
2018-12-16T01:05:39.438Z,-0.67
2018-12-16T01:06:48.106Z,-0.64
2018-12-16T01:07:56.777Z,-0.66
2018-12-16T01:09:05.442Z,-0.54
2018-12-16T01:10:14.124Z,-0.66
2018-12-16T01:11:22.789Z,-0.57
2018-12-16T01:12:31.467Z,-0.67
2018-12-16T01:13:40.379Z,-0.64
2018-12-16T01:14:49.049Z,-0.54
2018-12-16T01:15:57.719Z,-0.54
2018-12-16T01:17:06.384Z,-0.51
2018-12-16T01:18:15.043Z,-0.48
2018-12-16T01:19:23.960Z,-0.59
2018-12-16T01:20:32.634Z,-0.46
2018-12-16T01:21:41.298Z,-0.51
2018-12-16T01:22:49.967Z,-0.46
2018-12-16T01:23:58.626Z,-0.46
2018-12-16T01:25:07.292Z,-0.59
2018-12-16T01:26:15.961Z,-0.49
2018-12-16T01:27:24.624Z,-0.62
2018-12-16T01:28:33.282Z,-0.54
2018-12-16T01:29:41.943Z,-0.48
2018-12-16T01:30:50.605Z,-0.57
2018-12-16T01:31:59.274Z,-0.44
2018-12-16T01:33:07.938Z,-0.45
2018-12-16T01:34:16.595Z,-0.46
2018-12-16T01:35:25.518Z,-0.46
2018-12-16T01:36:34.180Z,-0.44
2018-12-16T01:37:42.849Z,-0.45
2018-12-16T01:38:51.773Z,-0.44
2018-12-16T01:40:00.436Z,-0.48
2018-12-16T01:41:09.104Z,-0.44
2018-12-16T01:42:17.770Z,-0.42
2018-12-16T01:43:26.428Z,-0.45
2018-12-16T01:44:35.092Z,-0.51
2018-12-16T01:45:43.754Z,-0.53
2018-12-16T01:46:52.419Z,-0.42
2018-12-16T01:48:01.075Z,-0.42
2018-12-16T01:49:09.741Z,-0.36
2018-12-16T01:50:18.407Z,-0.44
2018-12-16T01:51:27.323Z,-0.39
2018-12-16T01:52:35.987Z,-0.44
2018-12-16T01:53:44.646Z,-0.44
2018-12-16T01:54:53.575Z,-0.45
2018-12-16T01:56:02.487Z,-0.41
2018-12-16T01:57:11.402Z,-0.42
2018-12-16T01:58:20.330Z,-0.41
2018-12-16T01:59:28.999Z,-0.39
2018-12-16T02:00:37.655Z,-0.31
2018-12-16T02:01:46.323Z,-0.26
2018-12-16T02:02:54.984Z,-0.35
2018-12-16T02:04:03.660Z,-0.31
2018-12-16T02:05:12.682Z,-0.33
2018-12-16T02:06:21.347Z,-0.28
2018-12-16T02:07:30.015Z,-0.36
2018-12-16T02:08:38.683Z,-0.33
2018-12-16T02:09:47.607Z,-0.26
2018-12-16T02:10:56.257Z,-0.33
2018-12-16T02:12:04.966Z,-0.35
2018-12-16T02:13:13.651Z,-0.3
2018-12-16T02:14:22.324Z,-0.24
2018-12-16T02:15:30.997Z,-0.24
2018-12-16T02:16:39.665Z,-0.24
2018-12-16T02:17:48.324Z,-0.3
2018-12-16T02:18:56.996Z,-0.23
2018-12-16T02:20:05.904Z,-0.24
2018-12-16T02:21:14.572Z,-0.24
2018-12-16T02:22:23.236Z,-0.21
2018-12-16T02:23:31.908Z,-0.2
2018-12-16T02:24:40.888Z,-0.17
2018-12-16T02:25:49.551Z,-0.18
2018-12-16T02:26:58.206Z,-0.2
2018-12-16T02:28:06.874Z,-0.26
2018-12-16T02:29:15.801Z,-0.18
2018-12-16T02:30:24.469Z,-0.13
2018-12-16T02:31:33.152Z,-0.21
2018-12-16T02:32:42.079Z,-0.2
2018-12-16T02:33:50.778Z,-0.1
2018-12-16T02:34:59.455Z,-0.15
2018-12-16T02:36:08.134Z,-0.12
2018-12-16T02:37:16.803Z,-0.13
2018-12-16T02:38:25.471Z,-0.15
2018-12-16T02:39:34.136Z,-0.15
2018-12-16T02:40:42.816Z,-0.12
2018-12-16T02:41:51.469Z,-0.17
2018-12-16T02:43:00.134Z,-0.12
2018-12-16T02:44:08.805Z,-0.06
2018-12-16T02:45:17.473Z,-0.15
2018-12-16T02:46:26.690Z,-0.1
2018-12-16T02:47:35.350Z,-0.1
2018-12-16T02:48:44.020Z,-0.06
2018-12-16T02:49:52.692Z,-0.09
2018-12-16T02:51:01.371Z,-0.07
2018-12-16T02:52:10.041Z,-0.02
2018-12-16T02:53:18.724Z,-0.06
2018-12-16T02:54:27.397Z,-0.09
2018-12-16T02:55:36.151Z,0
2018-12-16T02:56:44.805Z,0.02
2018-12-16T02:57:53.478Z,0
2018-12-16T02:59:02.154Z,-0.06
2018-12-16T03:00:11.124Z,-0.06
2018-12-16T03:01:19.818Z,-0.05
2018-12-16T03:02:28.479Z,-0.03
2018-12-16T03:03:37.151Z,-0.03
2018-12-16T03:04:45.826Z,0.01
2018-12-16T03:05:54.745Z,0
2018-12-16T03:07:03.423Z,0.02
2018-12-16T03:08:12.108Z,0.06
2018-12-16T03:09:20.777Z,0.02
2018-12-16T03:10:29.456Z,-0.02
2018-12-16T03:11:38.126Z,0
2018-12-16T03:12:47.421Z,-0.02
2018-12-16T03:13:56.475Z,0.05
2018-12-16T03:15:05.144Z,0.05
2018-12-16T03:16:13.814Z,0.05
2018-12-16T03:17:22.480Z,-0.02
2018-12-16T03:18:31.166Z,0.06
2018-12-16T03:19:39.828Z,-0.02
2018-12-16T03:20:48.504Z,0
2018-12-16T03:21:57.675Z,0.02
2018-12-16T03:23:12.057Z,0
2018-12-16T03:24:21.190Z,0.02
2018-12-16T03:25:29.865Z,-0.02
2018-12-16T03:26:40.478Z,0.12
2018-12-16T03:27:49.149Z,0.05
2018-12-16T03:28:57.824Z,0.01
2018-12-16T03:30:06.799Z,0.12
2018-12-16T03:31:16.266Z,0.08
2018-12-16T03:32:25.216Z,0.11
2018-12-16T03:33:33.926Z,0.15
2018-12-16T03:34:42.591Z,0.15
2018-12-16T03:35:51.268Z,0.2
2018-12-16T03:36:59.931Z,0.16
2018-12-16T03:38:08.617Z,0.26
2018-12-16T03:39:17.292Z,0.29
2018-12-16T03:40:25.964Z,0.29
2018-12-16T03:41:34.629Z,0.3
2018-12-16T03:42:43.816Z,0.33
2018-12-16T03:43:52.493Z,0.4
2018-12-16T03:45:01.195Z,0.4
2018-12-16T03:46:10.390Z,0.37
2018-12-16T03:47:19.057Z,0.37
2018-12-16T03:48:28.003Z,0.49
2018-12-16T03:49:36.670Z,0.49
2018-12-16T03:50:45.347Z,0.34
2018-12-16T03:51:54.265Z,0.48
2018-12-16T03:53:02.949Z,0.48
2018-12-16T03:54:12.143Z,0.49
2018-12-16T03:55:20.831Z,0.4
2018-12-16T03:56:29.517Z,0.4
2018-12-16T03:57:38.186Z,0.45
2018-12-16T03:58:46.960Z,0.34
2018-12-16T03:59:55.623Z,0.37
2018-12-16T04:01:04.551Z,0.44
2018-12-16T04:02:13.229Z,0.37
2018-12-16T04:03:22.156Z,0.52
2018-12-16T04:04:30.813Z,0.42
2018-12-16T04:05:39.496Z,0.55
2018-12-16T04:06:48.159Z,0.47
2018-12-16T04:07:57.086Z,0.52
2018-12-16T04:09:05.745Z,0.55
2018-12-16T04:10:14.450Z,0.55
2018-12-16T04:11:23.133Z,0.61
2018-12-16T04:12:31.802Z,0.56
2018-12-16T04:13:40.474Z,0.52
2018-12-16T04:14:49.417Z,0.58
2018-12-16T04:15:58.111Z,0.49
2018-12-16T04:17:06.784Z,0.56
2018-12-16T04:18:15.711Z,0.52
2018-12-16T04:19:24.439Z,0.51
2018-12-16T04:20:33.109Z,0.52
2018-12-16T04:21:42.024Z,0.61
2018-12-16T04:22:50.700Z,0.61
2018-12-16T04:23:59.360Z,0.63
2018-12-16T04:25:08.292Z,0.64
2018-12-16T04:26:16.954Z,0.61
2018-12-16T04:27:25.632Z,0.58
2018-12-16T04:28:34.607Z,0.55
2018-12-16T04:29:43.532Z,0.58
2018-12-16T04:30:52.202Z,0.64
2018-12-16T04:32:00.874Z,0.58
2018-12-16T04:33:09.539Z,0.56
2018-12-16T04:34:18.209Z,0.58
2018-12-16T04:35:26.868Z,0.52
2018-12-16T04:36:35.801Z,0.61
2018-12-16T04:37:44.472Z,0.55
2018-12-16T04:38:53.130Z,0.58
2018-12-16T04:40:01.817Z,0.66
2018-12-16T04:41:10.468Z,0.64
2018-12-16T04:42:19.161Z,0.61
2018-12-16T04:43:28.079Z,0.59
2018-12-16T04:44:36.756Z,0.68
2018-12-16T04:45:45.416Z,0.58
2018-12-16T04:46:54.096Z,0.66
2018-12-16T04:48:03.024Z,0.63
2018-12-16T04:49:11.948Z,0.63
2018-12-16T04:50:20.619Z,0.61
2018-12-16T04:51:29.289Z,0.52
2018-12-16T04:52:37.978Z,0.61
2018-12-16T04:53:46.657Z,0.63
2018-12-16T04:54:55.591Z,0.52
2018-12-16T04:56:04.262Z,0.56
2018-12-16T04:57:12.933Z,0.59
2018-12-16T04:58:21.602Z,0.52
2018-12-16T04:59:30.276Z,0.58
2018-12-16T05:00:38.942Z,0.58
2018-12-16T05:01:47.865Z,0.59
2018-12-16T05:02:56.539Z,0.59
2018-12-16T05:04:05.198Z,0.55
2018-12-16T05:05:13.876Z,0.59
2018-12-16T05:06:24.043Z,0.58
2018-12-16T05:07:32.715Z,0.58
2018-12-16T05:08:41.392Z,0.61
2018-12-16T05:09:50.068Z,0.56
2018-12-16T05:10:58.774Z,0.63
2018-12-16T05:12:07.441Z,0.58
2018-12-16T05:13:16.188Z,0.58
2018-12-16T05:14:24.851Z,0.61
2018-12-16T05:15:33.771Z,0.55
2018-12-16T05:16:42.438Z,0.51
2018-12-16T05:17:51.117Z,0.49
2018-12-16T05:18:59.778Z,0.48
2018-12-16T05:20:08.455Z,0.49
2018-12-16T05:21:17.112Z,0.37
2018-12-16T05:22:25.791Z,0.42
2018-12-16T05:23:34.448Z,0.4
2018-12-16T05:24:48.609Z,0.51
2018-12-16T05:25:57.265Z,0.39
2018-12-16T05:27:05.944Z,0.4
2018-12-16T05:28:14.860Z,0.42
2018-12-16T05:29:23.524Z,0.4
2018-12-16T05:30:32.186Z,0.42
2018-12-16T05:31:41.110Z,0.39
2018-12-16T05:32:49.784Z,0.42
2018-12-16T05:33:58.448Z,0.42
2018-12-16T05:35:07.126Z,0.34
2018-12-16T05:36:16.038Z,0.42
2018-12-16T05:37:24.720Z,0.33
2018-12-16T05:38:33.377Z,0.3
2018-12-16T05:39:42.044Z,0.19
2018-12-16T05:40:50.697Z,0.19
2018-12-16T05:41:59.625Z,0.2
2018-12-16T05:43:08.290Z,0.18
2018-12-16T05:44:16.957Z,0.26
2018-12-16T05:45:25.611Z,0.26
2018-12-16T05:46:34.528Z,0.19
2018-12-16T05:47:43.199Z,0.12
2018-12-16T05:48:51.866Z,0.06
2018-12-16T05:50:00.535Z,0.05
2018-12-16T05:51:09.189Z,0
2018-12-16T05:52:17.855Z,-0.09
2018-12-16T05:53:26.519Z,0
2018-12-16T05:54:35.198Z,-0.07
2018-12-16T05:55:43.856Z,-0.05
2018-12-16T05:56:52.525Z,-0.05
2018-12-16T05:58:01.182Z,-0.05
2018-12-16T05:59:10.128Z,-0.07
2018-12-16T06:00:18.789Z,-0.12
2018-12-16T06:01:27.456Z,-0.15
2018-12-16T06:02:36.120Z,-0.09
2018-12-16T06:03:44.788Z,-0.1
2018-12-16T06:04:53.521Z,-0.13
2018-12-16T06:06:02.194Z,-0.07
2018-12-16T06:07:10.859Z,-0.05
2018-12-16T06:08:19.519Z,-0.15
2018-12-16T06:09:28.444Z,-0.05
2018-12-16T06:10:37.110Z,0
2018-12-16T06:11:45.773Z,-0.1
2018-12-16T06:12:54.440Z,-0.06
2018-12-16T06:14:03.109Z,-0.1
2018-12-16T06:15:11.771Z,-0.05
2018-12-16T06:16:20.433Z,-0.09
2018-12-16T06:17:29.347Z,-0.12
2018-12-16T06:18:38.022Z,-0.07
2018-12-16T06:19:46.693Z,-0.07
2018-12-16T06:20:55.363Z,-0.12
2018-12-16T06:22:04.281Z,-0.07
2018-12-16T06:23:12.945Z,-0.03
2018-12-16T06:24:21.604Z,-0.02
2018-12-16T06:25:30.286Z,0
2018-12-16T06:26:38.966Z,-0.05
2018-12-16T06:27:47.666Z,-0.03
2018-12-16T06:28:56.328Z,-0.07
2018-12-16T06:30:04.993Z,-0.03
2018-12-16T06:31:13.659Z,-0.12
2018-12-16T06:32:22.586Z,-0.12
2018-12-16T06:33:31.249Z,-0.03
2018-12-16T06:34:39.914Z,-0.07
2018-12-16T06:35:48.585Z,-0.07
2018-12-16T06:36:57.255Z,-0.09
2018-12-16T06:38:05.919Z,-0.09
2018-12-16T06:39:14.580Z,-0.03
2018-12-16T06:40:23.249Z,-0.02
2018-12-16T06:41:31.914Z,-0.02
2018-12-16T06:42:40.575Z,-0.13
2018-12-16T06:43:49.243Z,-0.13
2018-12-16T06:44:57.907Z,-0.05
2018-12-16T06:46:06.576Z,-0.13
2018-12-16T06:47:15.313Z,-0.1
2018-12-16T06:48:24.235Z,-0.09
2018-12-16T06:49:32.970Z,-0.09
2018-12-16T06:50:41.635Z,-0.06
2018-12-16T06:51:50.323Z,-0.1
2018-12-16T06:52:58.995Z,-0.1
2018-12-16T06:54:07.655Z,-0.05
2018-12-16T06:55:16.585Z,-0.12
2018-12-16T06:56:25.330Z,-0.12
2018-12-16T06:57:34.007Z,-0.13
2018-12-16T06:58:42.665Z,-0.09
2018-12-16T06:59:51.328Z,-0.1
2018-12-16T07:00:59.994Z,-0.05
2018-12-16T07:02:08.678Z,-0.06
2018-12-16T07:03:17.346Z,-0.05
2018-12-16T07:04:25.997Z,-0.05
2018-12-16T07:05:34.677Z,-0.12
2018-12-16T07:06:43.340Z,0.05
2018-12-16T07:07:52.019Z,0
2018-12-16T07:09:00.675Z,0.02
2018-12-16T07:10:09.350Z,-0.06
2018-12-16T07:11:18.027Z,-0.03
2018-12-16T07:12:26.989Z,0.02
2018-12-16T07:13:35.687Z,0.06
2018-12-16T07:14:44.433Z,0.02
2018-12-16T07:15:53.113Z,0
2018-12-16T07:17:01.824Z,-0.03
2018-12-16T07:18:10.520Z,0.06
2018-12-16T07:19:19.231Z,0.08
2018-12-16T07:20:28.202Z,0.05
2018-12-16T07:21:36.912Z,0.01
2018-12-16T07:22:47.078Z,0
2018-12-16T07:23:55.891Z,-0.03
2018-12-16T07:25:04.674Z,0.05
2018-12-16T07:26:13.607Z,-0.02
2018-12-16T07:27:22.320Z,0.02
2018-12-16T07:28:31.077Z,0
2018-12-16T07:29:40.015Z,0.01
2018-12-16T07:30:48.705Z,0.01
2018-12-16T07:31:57.428Z,0.06
2018-12-16T07:33:06.347Z,0.08
2018-12-16T07:34:15.045Z,-0.03
2018-12-16T07:35:23.726Z,0
2018-12-16T07:36:32.455Z,-0.02
2018-12-16T07:37:41.155Z,0
2018-12-16T07:38:49.875Z,-0.03
2018-12-16T07:39:58.561Z,-0.02
2018-12-16T07:41:07.317Z,-0.02
2018-12-16T07:42:16.282Z,0.05
2018-12-16T07:43:24.996Z,-0.07
2018-12-16T07:44:33.686Z,0
2018-12-16T07:45:42.372Z,-0.03
2018-12-16T07:46:51.091Z,0.01
2018-12-16T07:47:59.817Z,0
2018-12-16T07:49:09.032Z,0.01
2018-12-16T07:50:18.033Z,0.02
2018-12-16T07:51:26.730Z,0.01
2018-12-16T07:52:35.433Z,0
2018-12-16T07:53:44.191Z,0.08
2018-12-16T07:54:52.922Z,0.01
2018-12-16T07:56:01.581Z,0.08
2018-12-16T07:57:10.602Z,0.06
2018-12-16T07:58:19.286Z,0.02
2018-12-16T07:59:28.298Z,-0.02
2018-12-16T08:00:38.235Z,0.01
2018-12-16T08:01:47.000Z,0.01
2018-12-16T08:02:55.712Z,-0.02
2018-12-16T08:04:04.422Z,0.06
2018-12-16T08:05:13.097Z,-0.05
2018-12-16T08:06:21.825Z,0
2018-12-16T08:07:30.504Z,0.13
2018-12-16T08:08:39.171Z,0.09
2018-12-16T08:09:48.084Z,0.06
2018-12-16T08:10:56.750Z,0.09
2018-12-16T08:12:05.661Z,0.01
2018-12-16T08:13:14.342Z,0
2018-12-16T08:14:23.006Z,-0.02
2018-12-16T08:15:31.683Z,-0.03
2018-12-16T08:16:40.352Z,-0.02
2018-12-16T08:17:49.011Z,0
2018-12-16T08:18:57.672Z,0.01
2018-12-16T08:20:13.672Z,0.09
2018-12-16T08:21:22.341Z,0.11
2018-12-16T08:22:31.010Z,0.06
2018-12-16T08:23:39.887Z,0.18
2018-12-16T08:24:48.809Z,0.09
2018-12-16T08:25:57.474Z,0.06
2018-12-16T08:27:06.132Z,0.15
2018-12-16T08:28:14.801Z,0.15
2018-12-16T08:29:23.462Z,0.11
2018-12-16T08:30:32.153Z,0.09
2018-12-16T08:31:40.808Z,0.2
2018-12-16T08:32:49.474Z,0.08
2018-12-16T08:33:58.190Z,0.19
2018-12-16T08:35:06.854Z,0.16
2018-12-16T08:36:15.525Z,0.29
2018-12-16T08:37:24.196Z,0.24
2018-12-16T08:38:32.868Z,0.23
2018-12-16T08:39:42.545Z,0.29
2018-12-16T08:40:51.525Z,0.33
2018-12-16T08:42:00.188Z,0.3
2018-12-16T08:43:08.846Z,0.3
2018-12-16T08:44:17.520Z,0.31
2018-12-16T08:45:26.195Z,0.31
2018-12-16T08:46:34.867Z,0.39
2018-12-16T08:47:43.542Z,0.34
2018-12-16T08:48:52.207Z,0.27
2018-12-16T08:50:00.877Z,0.3
2018-12-16T08:51:09.541Z,0.27
2018-12-16T08:52:18.205Z,0.31
2018-12-16T08:53:26.869Z,0.34
2018-12-16T08:54:35.535Z,0.33
2018-12-16T08:55:44.201Z,0.39
2018-12-16T08:56:52.865Z,0.4
2018-12-16T08:58:01.790Z,0.27
2018-12-16T08:59:10.531Z,0.36
2018-12-16T09:00:19.196Z,0.37
2018-12-16T09:01:29.289Z,0.47
2018-12-16T09:02:38.070Z,0.45
2018-12-16T09:03:46.738Z,0.4
2018-12-16T09:04:55.397Z,0.49
2018-12-16T09:06:04.063Z,0.55
2018-12-16T09:07:12.726Z,0.44
2018-12-16T09:08:21.390Z,0.4
2018-12-16T09:09:30.057Z,0.47
2018-12-16T09:10:38.829Z,0.51
2018-12-16T09:11:47.752Z,0.51
2018-12-16T09:12:56.668Z,0.4
2018-12-16T09:14:05.363Z,0.45
2018-12-16T09:15:14.025Z,0.52
2018-12-16T09:16:22.696Z,0.59
2018-12-16T09:17:31.609Z,0.51
2018-12-16T09:18:40.278Z,0.48
2018-12-16T09:19:49.199Z,0.49
2018-12-16T09:20:58.120Z,0.47
2018-12-16T09:22:07.046Z,0.52
2018-12-16T09:23:15.714Z,0.56
2018-12-16T09:24:24.374Z,0.47
2018-12-16T09:25:33.042Z,0.52
2018-12-16T09:26:42.226Z,0.59
2018-12-16T09:27:50.897Z,0.59
2018-12-16T09:28:59.563Z,0.67
2018-12-16T09:30:08.227Z,0.68
2018-12-16T09:31:16.895Z,0.71
2018-12-16T09:32:25.559Z,0.7
2018-12-16T09:33:34.220Z,0.64
2018-12-16T09:34:42.881Z,0.76
2018-12-16T09:35:51.555Z,0.74
2018-12-16T09:37:00.223Z,0.71
2018-12-16T09:38:08.892Z,0.77
2018-12-16T09:39:17.625Z,0.76
2018-12-16T09:40:26.297Z,0.7
2018-12-16T09:41:34.965Z,0.78
2018-12-16T09:42:43.638Z,0.7
2018-12-16T09:43:52.301Z,0.78
2018-12-16T09:45:00.969Z,0.77
2018-12-16T09:46:09.638Z,0.81
2018-12-16T09:47:18.313Z,0.77
2018-12-16T09:48:26.979Z,0.86
2018-12-16T09:49:35.640Z,0.82
2018-12-16T09:50:44.824Z,0.81
2018-12-16T09:51:54.057Z,0.78
2018-12-16T09:53:02.729Z,0.86
2018-12-16T09:54:11.397Z,0.86
2018-12-16T09:55:20.072Z,0.86
2018-12-16T09:56:28.745Z,0.86
2018-12-16T09:57:37.430Z,0.86
2018-12-16T09:58:46.093Z,1.03
2018-12-16T09:59:54.771Z,1.02
2018-12-16T10:01:03.436Z,1.07
2018-12-16T10:02:12.109Z,1.04
2018-12-16T10:03:20.773Z,1.1
2018-12-16T10:04:29.479Z,1.1
2018-12-16T10:05:38.402Z,1.12
2018-12-16T10:06:47.074Z,1.21
2018-12-16T10:07:56.006Z,1.31
2018-12-16T10:09:04.667Z,1.27
2018-12-16T10:10:13.411Z,1.2
2018-12-16T10:11:22.091Z,1.21
2018-12-16T10:12:30.765Z,1.2
2018-12-16T10:13:39.428Z,1.21
2018-12-16T10:14:48.354Z,1.18
2018-12-16T10:15:57.016Z,1.27
2018-12-16T10:17:05.691Z,1.24
2018-12-16T10:18:14.355Z,1.22
2018-12-16T10:19:23.024Z,1.22
2018-12-16T10:20:31.682Z,1.27
2018-12-16T10:21:40.361Z,1.34
2018-12-16T10:22:49.462Z,1.28
2018-12-16T10:23:58.131Z,1.39
2018-12-16T10:25:07.051Z,1.39
2018-12-16T10:26:15.712Z,1.36
2018-12-16T10:27:24.376Z,1.43
2018-12-16T10:28:33.040Z,1.45
2018-12-16T10:29:41.717Z,1.43
2018-12-16T10:30:50.710Z,1.43
2018-12-16T10:31:59.644Z,1.46
2018-12-16T10:33:08.303Z,1.32
2018-12-16T10:34:16.979Z,1.4
2018-12-16T10:35:25.649Z,1.38
2018-12-16T10:36:34.581Z,1.32
2018-12-16T10:37:43.342Z,1.38
2018-12-16T10:38:52.021Z,1.34
2018-12-16T10:40:00.693Z,1.39
2018-12-16T10:41:09.353Z,1.46
2018-12-16T10:42:18.018Z,1.42
2018-12-16T10:43:27.586Z,1.36
2018-12-16T10:44:36.257Z,1.45
2018-12-16T10:45:44.916Z,1.4
2018-12-16T10:46:53.586Z,1.43
2018-12-16T10:48:02.586Z,1.45
2018-12-16T10:49:11.267Z,1.42
2018-12-16T10:50:19.934Z,1.43
2018-12-16T10:51:28.614Z,1.48
2018-12-16T10:52:37.270Z,1.42
2018-12-16T10:53:45.962Z,1.5
2018-12-16T10:55:00.667Z,1.5
2018-12-16T10:56:09.347Z,1.56
2018-12-16T10:57:18.005Z,1.58
2018-12-16T10:58:26.683Z,1.61
2018-12-16T10:59:35.370Z,1.58
2018-12-16T11:00:45.067Z,1.67
2018-12-16T11:01:53.752Z,1.61
2018-12-16T11:03:02.413Z,1.56
2018-12-16T11:04:11.084Z,1.61
2018-12-16T11:05:19.742Z,1.56
2018-12-16T11:06:28.418Z,1.6
2018-12-16T11:07:37.081Z,1.61
2018-12-16T11:08:46.020Z,1.64
2018-12-16T11:09:54.677Z,1.6
2018-12-16T11:11:03.345Z,1.57
2018-12-16T11:12:12.003Z,1.57
2018-12-16T11:13:20.671Z,1.56
2018-12-16T11:14:29.334Z,1.57
2018-12-16T11:15:38.012Z,1.58
2018-12-16T11:16:46.672Z,1.6
2018-12-16T11:17:55.330Z,1.64
2018-12-16T11:19:04.001Z,1.76
2018-12-16T11:20:12.660Z,1.71
2018-12-16T11:21:21.335Z,1.71
2018-12-16T11:22:30.007Z,1.75
2018-12-16T11:23:38.933Z,1.74
2018-12-16T11:24:47.839Z,1.75
2018-12-16T11:25:56.767Z,1.74
2018-12-16T11:27:05.429Z,1.7
2018-12-16T11:28:15.159Z,1.64
2018-12-16T11:29:23.816Z,1.67
2018-12-16T11:30:32.488Z,1.7
2018-12-16T11:31:41.156Z,1.61
2018-12-16T11:32:49.829Z,1.71
2018-12-16T11:33:58.746Z,1.7
2018-12-16T11:35:07.414Z,1.67
2018-12-16T11:36:16.084Z,1.67
2018-12-16T11:37:24.769Z,1.7
2018-12-16T11:38:33.438Z,1.78
2018-12-16T11:39:42.102Z,1.78
2018-12-16T11:40:50.775Z,1.78
2018-12-16T11:41:59.451Z,1.81
2018-12-16T11:43:08.135Z,1.75
2018-12-16T11:44:16.792Z,1.82
2018-12-16T11:45:25.730Z,1.78
2018-12-16T11:46:34.654Z,1.79
2018-12-16T11:47:43.340Z,1.71
2018-12-16T11:48:52.035Z,1.71
2018-12-16T11:50:00.699Z,1.79
2018-12-16T11:51:09.629Z,1.75
2018-12-16T11:52:18.320Z,1.76
2018-12-16T11:53:26.983Z,1.75
2018-12-16T11:54:35.649Z,1.75
2018-12-16T11:55:44.311Z,1.74
2018-12-16T11:56:52.975Z,1.78
2018-12-16T11:58:01.914Z,1.82
2018-12-16T11:59:10.583Z,1.76
2018-12-16T12:00:19.251Z,1.7
2018-12-16T12:01:27.920Z,1.79
2018-12-16T12:02:37.300Z,1.76
2018-12-16T12:03:45.967Z,1.78
2018-12-16T12:04:54.639Z,1.82
2018-12-16T12:06:03.303Z,1.68
2018-12-16T12:07:11.975Z,1.78
2018-12-16T12:08:20.637Z,1.7
2018-12-16T12:09:29.300Z,1.74
2018-12-16T12:10:37.957Z,1.76
2018-12-16T12:11:46.623Z,1.79
2018-12-16T12:12:55.294Z,1.76
2018-12-16T12:14:03.958Z,1.76
2018-12-16T12:15:12.632Z,1.79
2018-12-16T12:16:21.303Z,1.78
2018-12-16T12:17:29.978Z,1.79
2018-12-16T12:18:38.990Z,1.79
2018-12-16T12:19:47.657Z,1.81
2018-12-16T12:20:56.575Z,1.79
2018-12-16T12:22:08.745Z,1.82
2018-12-16T12:23:17.408Z,1.76
2018-12-16T12:24:26.341Z,1.75
2018-12-16T12:25:36.108Z,1.95
2018-12-16T12:26:44.783Z,1.85
2018-12-16T12:27:53.704Z,1.93
2018-12-16T12:29:02.393Z,1.85
2018-12-16T12:30:11.059Z,1.84
2018-12-16T12:31:19.724Z,2
2018-12-16T12:32:28.400Z,1.86
2018-12-16T12:33:37.320Z,2
2018-12-16T12:34:45.989Z,1.93
2018-12-16T12:35:54.656Z,1.97
2018-12-16T12:37:03.328Z,2
2018-12-16T12:38:11.989Z,1.92
2018-12-16T12:39:20.657Z,1.95
2018-12-16T12:40:29.374Z,2
2018-12-16T12:41:38.044Z,1.93
2018-12-16T12:42:46.703Z,1.95
2018-12-16T12:43:55.375Z,1.89
2018-12-16T12:45:04.293Z,1.97
2018-12-16T12:46:13.058Z,1.98
2018-12-16T12:47:21.722Z,1.98
2018-12-16T12:48:30.513Z,1.92
2018-12-16T12:49:44.866Z,1.93
2018-12-16T12:50:53.755Z,1.98
2018-12-16T12:52:02.456Z,1.98
2018-12-16T12:53:11.126Z,2.04
2018-12-16T12:54:19.802Z,1.92
2018-12-16T12:55:31.651Z,1.95
2018-12-16T12:56:40.311Z,1.93
2018-12-16T12:57:48.987Z,1.89
2018-12-16T12:58:57.662Z,1.84
2018-12-16T13:00:06.329Z,1.89
2018-12-16T13:01:15.254Z,1.88
2018-12-16T13:02:23.925Z,1.92
2018-12-16T13:03:32.851Z,1.97
2018-12-16T13:04:41.526Z,1.95
2018-12-16T13:05:50.192Z,1.92
2018-12-16T13:06:59.183Z,1.98
2018-12-16T13:08:07.846Z,2.01
2018-12-16T13:09:16.519Z,2.03
2018-12-16T13:10:25.184Z,2.03
2018-12-16T13:11:33.844Z,2.01
2018-12-16T13:12:42.517Z,2.07
2018-12-16T13:13:51.181Z,2.12
2018-12-16T13:14:59.848Z,2.07
2018-12-16T13:16:09.108Z,2.03
2018-12-16T13:17:18.037Z,2.03
2018-12-16T13:18:26.705Z,2.03
2018-12-16T13:19:35.373Z,1.98
2018-12-16T13:20:44.037Z,1.98
2018-12-16T13:21:52.966Z,2.01
2018-12-16T13:23:01.636Z,1.97
2018-12-16T13:24:10.304Z,2
2018-12-16T13:25:19.475Z,2.04
2018-12-16T13:26:28.460Z,2.01
2018-12-16T13:27:37.131Z,1.98
2018-12-16T13:28:46.072Z,2.12
2018-12-16T13:29:54.741Z,2.15
2018-12-16T13:31:03.415Z,2.15
2018-12-16T13:32:12.084Z,2.21
2018-12-16T13:33:20.748Z,2.15
2018-12-16T13:34:29.692Z,2.1
2018-12-16T13:35:38.355Z,2.14
2018-12-16T13:36:47.831Z,2.15
2018-12-16T13:37:56.611Z,2.08
2018-12-16T13:39:05.285Z,2.1
2018-12-16T13:40:13.960Z,2.1
2018-12-16T13:41:22.880Z,2.16
2018-12-16T13:42:31.543Z,2.07
2018-12-16T13:43:40.226Z,2.08
2018-12-16T13:44:48.890Z,2.01
2018-12-16T13:45:57.824Z,2.08
2018-12-16T13:47:06.498Z,1.98
2018-12-16T13:48:15.166Z,2.05
2018-12-16T13:49:24.090Z,2
2018-12-16T13:50:32.752Z,2.04
2018-12-16T13:51:41.441Z,1.93
2018-12-16T13:52:50.353Z,1.93
2018-12-16T13:53:59.028Z,2.04
2018-12-16T13:55:07.713Z,2.07
2018-12-16T13:56:16.391Z,2.04
2018-12-16T13:57:25.048Z,2.04
2018-12-16T13:58:33.728Z,2
2018-12-16T13:59:42.399Z,2.07
2018-12-16T14:00:51.075Z,2.05
2018-12-16T14:01:59.736Z,2.05
2018-12-16T14:03:08.401Z,2.01
2018-12-16T14:04:17.133Z,2.01
2018-12-16T14:05:26.054Z,2.01
2018-12-16T14:06:34.748Z,2.1
2018-12-16T14:07:43.424Z,1.95
2018-12-16T14:08:52.345Z,2.04
2018-12-16T14:10:01.002Z,2.01
2018-12-16T14:11:09.748Z,2.12
2018-12-16T14:12:18.416Z,2.04
2018-12-16T14:13:27.087Z,2.01
2018-12-16T14:14:35.743Z,2.01
2018-12-16T14:15:44.680Z,2.01
2018-12-16T14:16:59.030Z,2.03
2018-12-16T14:18:07.975Z,2.04
2018-12-16T14:19:16.630Z,1.98
2018-12-16T14:20:25.313Z,2.05
2018-12-16T14:21:33.985Z,1.93
2018-12-16T14:22:42.665Z,1.97
2018-12-16T14:23:51.408Z,1.97
2018-12-16T14:25:00.066Z,2.03
2018-12-16T14:26:08.751Z,1.95
2018-12-16T14:27:17.685Z,1.98
2018-12-16T14:28:26.355Z,1.88
2018-12-16T14:29:35.008Z,2.07
2018-12-16T14:30:43.678Z,2.05
2018-12-16T14:31:52.338Z,1.92
2018-12-16T14:33:01.023Z,2.04
2018-12-16T14:34:09.677Z,2
2018-12-16T14:35:18.357Z,1.98
2018-12-16T14:36:28.435Z,2.01
2018-12-16T14:37:37.210Z,1.98
2018-12-16T14:38:45.871Z,2
2018-12-16T14:39:54.533Z,2.07
2018-12-16T14:41:03.872Z,2.04
2018-12-16T14:42:12.538Z,1.97
2018-12-16T14:43:21.219Z,1.92
2018-12-16T14:44:30.135Z,1.92
2018-12-16T14:45:38.804Z,2
2018-12-16T14:46:47.457Z,1.97
2018-12-16T14:47:56.138Z,1.88
2018-12-16T14:49:04.816Z,1.88
2018-12-16T14:50:13.477Z,1.95
2018-12-16T14:51:22.388Z,1.93
2018-12-16T14:52:31.066Z,2.07
2018-12-16T14:53:39.734Z,1.95
2018-12-16T14:54:48.399Z,2.07
2018-12-16T14:55:59.711Z,2.05
2018-12-16T14:57:08.384Z,2.04
2018-12-16T14:58:17.052Z,2.04
2018-12-16T14:59:25.742Z,1.98
2018-12-16T15:00:34.423Z,1.95
2018-12-16T15:01:43.083Z,2.03
2018-12-16T15:02:51.752Z,2.01
2018-12-16T15:04:00.422Z,1.98
2018-12-16T15:05:09.096Z,2
2018-12-16T15:06:17.760Z,2.03
2018-12-16T15:07:26.682Z,1.97
2018-12-16T15:08:35.342Z,1.88
2018-12-16T15:09:44.012Z,1.89
2018-12-16T15:10:52.676Z,1.95
2018-12-16T15:12:01.354Z,1.95